USTRANSCOM 7586


KWRI
Joint Base McGuire Dix Lakehurst
Wrightstown, New Jersey, US
BGTL
Thule Air Base
Pituffik, , GL

Activity Log

Date Flight Route Aircraft Duration
01/04/2019 CMB806 PTW3 ETX LVZ REEDO TAGET ROUND YFM YAS YLC YXP YCY THT B752 5h 32m

Route Details

Aircraft Information
Primary: Boeing 757-200SF
Backup: Not Available
Route Data
Distance: 2201nm
Sched. Duration: 4h 50m
Avg. Duration: 5h 32m (+82m)
Times Flown: 1
Recm'd Route: Not Available
Planned Altitude: 34,000ft
Origin Wx: KWRI 080601Z 35005KT 9SM SCT004 OVC031 21/21 A3013 RMK AO2A SLP202 $
Dest. Wx: BGTL 080556Z AUTO 12006KT 9999 CLR 04/04 A2960 RMK AO2 SLP007 T00370037 10042 20036 TSNO $
Notes: USTRANSCOM CONTRACT FLIGHT

Financial History
Total Freight: 55,489lbs
Average Load: 55,489lbs/flt
Fuel Used: 50,609lbs
Avg. Fuel Used: 50,609lbs/flt
Fuel Expense: $40,487
Avg. Fuel Expense: $40,487
Avg. Fuel Cost: $0.80/lbs
Total Gross Income: $93,776
Pilot Pay: $149
Total Expenses: $10,180
Total Revenue: $41,787
Average Revenue: $93,776.41